createdAt,value
2019-06-01T00:00:12.261Z,16.5
2019-06-01T00:00:38.235Z,16.4
2019-06-01T00:01:13.194Z,16.4
2019-06-01T00:01:49.284Z,16.4
2019-06-01T00:02:25.143Z,16.2
2019-06-01T00:03:01.244Z,16.3
2019-06-01T00:03:38.465Z,16.3
2019-06-01T00:04:13.157Z,16.3
2019-06-01T00:04:49.761Z,16.3
2019-06-01T00:05:25.269Z,16.4
2019-06-01T00:06:01.188Z,16.3
2019-06-01T00:06:38.528Z,16.3
2019-06-01T00:07:13.117Z,16.4
2019-06-01T00:07:49.288Z,16.3
2019-06-01T00:08:25.179Z,16.3
2019-06-01T00:09:01.166Z,16.3
2019-06-01T00:09:37.132Z,16.3
2019-06-01T00:10:13.244Z,16.4
2019-06-01T00:10:49.991Z,16.3
2019-06-01T00:11:25.173Z,16.3
2019-06-01T00:12:01.130Z,16.4
2019-06-01T00:12:37.209Z,16.3
2019-06-01T00:13:13.179Z,16.3
2019-06-01T00:13:49.984Z,16.3
2019-06-01T00:14:25.125Z,16.3
2019-06-01T00:15:01.211Z,16.3
2019-06-01T00:15:37.188Z,16.3
2019-06-01T00:16:13.159Z,16.2
2019-06-01T00:16:50.706Z,16.3
2019-06-01T00:17:25.205Z,16.3
2019-06-01T00:18:01.167Z,16.3
2019-06-01T00:18:37.138Z,16.3
2019-06-01T00:19:13.224Z,16.4
2019-06-01T00:19:50.572Z,16.3
2019-06-01T00:20:25.174Z,16.2
2019-06-01T00:21:01.181Z,16.3
2019-06-01T00:21:37.265Z,16.3
2019-06-01T00:22:13.235Z,16.2
2019-06-01T00:22:49.755Z,16.2
2019-06-01T00:23:25.140Z,16.2
2019-06-01T00:24:01.226Z,16.1
2019-06-01T00:24:37.192Z,16.3
2019-06-01T00:25:13.173Z,16.2
2019-06-01T00:25:49.138Z,16.1
2019-06-01T00:26:25.243Z,16.1
2019-06-01T00:27:01.190Z,16.1
2019-06-01T00:27:37.155Z,16.1
2019-06-01T00:28:13.126Z,16.1
2019-06-01T00:28:50.291Z,16.2
2019-06-01T00:29:25.181Z,16.1
2019-06-01T00:30:01.201Z,16.1
2019-06-01T00:30:37.129Z,16.2
2019-06-01T00:31:13.217Z,16.2
2019-06-01T00:31:50.229Z,16.1
2019-06-01T00:32:25.154Z,16.1
2019-06-01T00:33:01.133Z,16.2
2019-06-01T00:33:37.215Z,16.1
2019-06-01T00:34:13.181Z,16.2
2019-06-01T00:34:50.202Z,16.1
2019-06-01T00:35:25.116Z,16.1
2019-06-01T00:36:01.214Z,16.2
2019-06-01T00:36:37.292Z,16
2019-06-01T00:37:13.153Z,16
2019-06-01T00:37:51.469Z,16
2019-06-01T00:38:25.233Z,16
2019-06-01T00:39:01.170Z,16
2019-06-01T00:39:37.153Z,16.1
2019-06-01T00:40:13.150Z,16.1
2019-06-01T00:40:50.215Z,16.1
2019-06-01T00:41:25.170Z,16.1
2019-06-01T00:42:01.259Z,16.1
2019-06-01T00:42:37.104Z,16.1
2019-06-01T00:43:13.202Z,16
2019-06-01T00:43:50.374Z,16
2019-06-01T00:44:25.137Z,16.1
2019-06-01T00:45:01.102Z,15.9
2019-06-01T00:45:37.231Z,16
2019-06-01T00:46:13.166Z,16
2019-06-01T00:46:49.131Z,15.9
2019-06-01T00:47:25.115Z,15.9
2019-06-01T00:48:01.193Z,16
2019-06-01T00:48:37.175Z,15.9
2019-06-01T00:49:13.142Z,15.9
2019-06-01T00:49:49.151Z,16
2019-06-01T00:50:25.275Z,15.9
2019-06-01T00:51:01.154Z,15.9
2019-06-01T00:51:37.160Z,15.9
2019-06-01T00:52:13.109Z,15.9
2019-06-01T00:52:49.588Z,15.8
2019-06-01T00:53:25.171Z,15.8
2019-06-01T00:54:01.187Z,15.8
2019-06-01T00:54:37.098Z,15.8
2019-06-01T00:55:13.185Z,15.9
2019-06-01T00:55:49.726Z,15.9
2019-06-01T00:56:25.125Z,15.9
2019-06-01T00:57:01.092Z,15.8
2019-06-01T00:57:37.196Z,15.8
2019-06-01T00:58:13.147Z,15.8
2019-06-01T00:58:50.137Z,15.9
2019-06-01T00:59:25.093Z,15.8
2019-06-01T01:00:01.193Z,15.8
2019-06-01T01:00:45.953Z,15.9
2019-06-01T01:01:13.135Z,15.8
2019-06-01T01:01:50.354Z,15.8
2019-06-01T01:02:25.176Z,15.8
2019-06-01T01:03:01.173Z,15.7
2019-06-01T01:03:37.138Z,15.8
2019-06-01T01:04:13.083Z,15.8
2019-06-01T01:04:50.323Z,15.8
2019-06-01T01:05:25.187Z,15.9
2019-06-01T01:06:01.124Z,15.9
2019-06-01T01:06:37.109Z,15.8
2019-06-01T01:07:13.176Z,15.8
2019-06-01T01:07:49.214Z,15.9
2019-06-01T01:08:25.114Z,15.9
2019-06-01T01:09:01.098Z,15.8
2019-06-01T01:09:37.197Z,15.8
2019-06-01T01:10:13.147Z,15.7
2019-06-01T01:10:49.412Z,15.8
2019-06-01T01:11:25.208Z,15.7
2019-06-01T01:12:01.188Z,15.7
2019-06-01T01:12:37.180Z,15.7
2019-06-01T01:13:13.128Z,15.7
2019-06-01T01:13:49.563Z,15.6
2019-06-01T01:14:25.171Z,15.7
2019-06-01T01:15:01.280Z,15.6
2019-06-01T01:15:37.117Z,15.6
2019-06-01T01:16:13.190Z,15.7
2019-06-01T01:16:49.771Z,15.6
2019-06-01T01:17:25.151Z,15.6
2019-06-01T01:18:01.125Z,15.7
2019-06-01T01:18:37.191Z,15.7
2019-06-01T01:19:13.179Z,15.7
2019-06-01T01:19:49.965Z,15.7
2019-06-01T01:20:25.113Z,15.7
2019-06-01T01:21:01.194Z,15.6
2019-06-01T01:21:37.208Z,15.6
2019-06-01T01:22:13.135Z,15.6
2019-06-01T01:22:50.434Z,15.5
2019-06-01T01:23:25.205Z,15.4
2019-06-01T01:24:01.148Z,15.4
2019-06-01T01:24:37.143Z,15.3
2019-06-01T01:25:13.099Z,15.2
2019-06-01T01:25:50.407Z,15.2
2019-06-01T01:26:25.152Z,15.3
2019-06-01T01:27:01.121Z,15.2
2019-06-01T01:27:37.099Z,15.1
2019-06-01T01:28:13.227Z,15.1
2019-06-01T01:28:49.151Z,15
2019-06-01T01:29:25.121Z,15.1
2019-06-01T01:30:01.125Z,15.1
2019-06-01T01:30:37.350Z,15.2
2019-06-01T01:31:14.556Z,15.1
2019-06-01T01:31:49.471Z,15.1
2019-06-01T01:32:25.097Z,15.1
2019-06-01T01:33:01.188Z,15.2
2019-06-01T01:33:37.178Z,15
2019-06-01T01:34:13.121Z,15.1
2019-06-01T01:34:49.766Z,15.1
2019-06-01T01:35:25.171Z,15.1
2019-06-01T01:36:01.149Z,15.1
2019-06-01T01:36:37.146Z,14.9
2019-06-01T01:37:13.087Z,15
2019-06-01T01:37:50.282Z,14.9
2019-06-01T01:38:25.190Z,14.9
2019-06-01T01:39:01.101Z,15
2019-06-01T01:39:37.076Z,15
2019-06-01T01:40:13.195Z,15
2019-06-01T01:40:50.353Z,14.9
2019-06-01T01:41:25.106Z,15
2019-06-01T01:42:01.078Z,15
2019-06-01T01:42:37.168Z,14.9
2019-06-01T01:43:13.159Z,14.9
2019-06-01T01:43:50.079Z,14.9
2019-06-01T01:44:25.075Z,14.9
2019-06-01T01:45:01.170Z,14.9
2019-06-01T01:45:37.207Z,14.9
2019-06-01T01:46:13.105Z,14.8
2019-06-01T01:46:49.079Z,14.8
2019-06-01T01:47:25.156Z,14.8
2019-06-01T01:48:01.789Z,14.8
2019-06-01T01:48:37.128Z,14.8
2019-06-01T01:49:13.076Z,14.8
2019-06-01T01:49:50.266Z,14.8
2019-06-01T01:50:25.137Z,14.7
2019-06-01T01:51:01.086Z,14.8
2019-06-01T01:51:37.060Z,14.8
2019-06-01T01:52:13.162Z,14.8
2019-06-01T01:52:50.236Z,14.8
2019-06-01T01:53:25.096Z,14.8
2019-06-01T01:54:01.095Z,14.7
2019-06-01T01:54:37.163Z,14.8
2019-06-01T01:55:13.128Z,14.7
2019-06-01T01:55:49.114Z,14.7
2019-06-01T01:56:25.063Z,14.7
2019-06-01T01:57:02.257Z,14.8
2019-06-01T01:57:37.123Z,14.7
2019-06-01T01:58:13.093Z,14.7
2019-06-01T01:58:50.565Z,14.7
2019-06-01T01:59:25.147Z,14.7
2019-06-01T02:00:02.177Z,14.7
2019-06-01T02:00:37.127Z,14.6
2019-06-01T02:01:23.216Z,14.6
2019-06-01T02:01:50.299Z,14.6
2019-06-01T02:02:25.131Z,14.7
2019-06-01T02:03:02.568Z,14.8
2019-06-01T02:03:37.186Z,14.7
2019-06-01T02:04:13.162Z,14.7
2019-06-01T02:04:49.114Z,14.7
2019-06-01T02:05:25.091Z,14.7
2019-06-01T02:06:01.173Z,14.7
2019-06-01T02:06:37.163Z,14.7
2019-06-01T02:07:13.110Z,14.7
2019-06-01T02:07:49.085Z,14.7
2019-06-01T02:08:25.191Z,14.8
2019-06-01T02:09:02.181Z,14.7
2019-06-01T02:09:37.122Z,14.7
2019-06-01T02:10:13.080Z,14.7
2019-06-01T02:10:49.181Z,14.6
2019-06-01T02:11:25.137Z,14.6
2019-06-01T02:12:02.547Z,14.6
2019-06-01T02:12:37.065Z,14.7
2019-06-01T02:13:13.158Z,14.7
2019-06-01T02:13:49.142Z,14.7
2019-06-01T02:14:25.121Z,14.7
2019-06-01T02:15:02.418Z,14.5
2019-06-01T02:15:37.203Z,14.6
2019-06-01T02:16:13.135Z,14.7
2019-06-01T02:16:49.123Z,14.6
2019-06-01T02:17:25.078Z,14.7
2019-06-01T02:18:03.027Z,14.6
2019-06-01T02:18:37.123Z,14.6
2019-06-01T02:19:13.160Z,14.6
2019-06-01T02:19:49.051Z,14.6
2019-06-01T02:20:25.167Z,14.6
2019-06-01T02:21:01.137Z,14.5
2019-06-01T02:21:37.086Z,14.5
2019-06-01T02:22:13.067Z,14.6
2019-06-01T02:22:49.183Z,14.6
2019-06-01T02:23:25.116Z,14.6
2019-06-01T02:24:03.191Z,14.5
2019-06-01T02:24:37.073Z,14.5
2019-06-01T02:25:13.147Z,14.5
2019-06-01T02:25:49.176Z,14.4
2019-06-01T02:26:25.092Z,14.6
2019-06-01T02:27:01.650Z,14.5
2019-06-01T02:27:49.059Z,14.7
2019-06-01T02:28:25.135Z,14.7
2019-06-01T02:29:04.196Z,14.6
2019-06-01T02:29:37.092Z,14.6
2019-06-01T02:30:13.064Z,14.7
2019-06-01T02:30:49.146Z,14.7
2019-06-01T02:31:42.606Z,14.7
2019-06-01T02:32:04.189Z,14.7
2019-06-01T02:32:37.045Z,14.7
2019-06-01T02:33:13.142Z,14.9
2019-06-01T02:33:49.116Z,14.8
2019-06-01T02:34:25.079Z,14.9
2019-06-01T02:35:04.862Z,14.9
2019-06-01T02:35:37.163Z,14.8
2019-06-01T02:36:25.150Z,14.8
2019-06-01T02:37:04.039Z,14.9
2019-06-01T02:37:37.082Z,14.9
2019-06-01T02:38:13.068Z,14.9
2019-06-01T02:38:49.177Z,14.9
2019-06-01T02:39:25.091Z,15
2019-06-01T02:40:03.090Z,14.9
2019-06-01T02:40:37.048Z,15
2019-06-01T02:41:13.179Z,15
2019-06-01T02:41:49.098Z,15
2019-06-01T02:42:25.072Z,14.9
2019-06-01T02:43:03.813Z,15
2019-06-01T02:43:37.173Z,15
2019-06-01T02:44:13.104Z,15
2019-06-01T02:45:03.247Z,14.9
2019-06-01T02:45:37.107Z,14.9
2019-06-01T02:46:13.040Z,15
2019-06-01T02:46:49.133Z,14.9
2019-06-01T02:47:25.097Z,15
2019-06-01T02:48:03.724Z,15
2019-06-01T02:48:37.032Z,15
2019-06-01T02:49:13.117Z,15
2019-06-01T02:49:49.098Z,15.1
2019-06-01T02:50:25.077Z,15.1
2019-06-01T02:51:03.954Z,15
2019-06-01T02:51:37.115Z,15.1
2019-06-01T02:52:13.087Z,15
2019-06-01T02:52:49.093Z,15
2019-06-01T02:53:37.067Z,14.9
2019-06-01T02:54:13.174Z,14.9
2019-06-01T02:54:49.118Z,15
2019-06-01T02:55:25.137Z,14.9
2019-06-01T02:56:02.360Z,14.9
2019-06-01T02:56:37.149Z,14.9
2019-06-01T02:57:13.107Z,14.9
2019-06-01T02:57:49.083Z,14.9
2019-06-01T02:58:25.042Z,14.9
2019-06-01T02:59:02.271Z,14.9
2019-06-01T02:59:37.107Z,15.1
2019-06-01T03:00:13.079Z,15
2019-06-01T03:00:49.119Z,14.9
2019-06-01T03:01:25.139Z,15.1
2019-06-01T03:02:12.155Z,15.1
2019-06-01T03:02:37.069Z,15
2019-06-01T03:03:13.041Z,15.1
2019-06-01T03:03:49.132Z,15
2019-06-01T03:04:25.112Z,15.1
2019-06-01T03:05:01.516Z,15.1
2019-06-01T03:05:37.036Z,15
2019-06-01T03:06:13.157Z,15
2019-06-01T03:06:49.119Z,15
2019-06-01T03:07:25.066Z,15
2019-06-01T03:08:01.627Z,15.1
2019-06-01T03:08:37.131Z,15
2019-06-01T03:09:13.101Z,15
2019-06-01T03:09:49.094Z,15
2019-06-01T03:10:25.046Z,14.9
2019-06-01T03:11:02.090Z,14.9
2019-06-01T03:11:37.107Z,14.9
2019-06-01T03:12:13.064Z,14.9
2019-06-01T03:12:49.039Z,14.9
2019-06-01T03:13:25.132Z,14.9
2019-06-01T03:14:02.345Z,14.9
2019-06-01T03:14:37.100Z,14.9
2019-06-01T03:15:13.028Z,14.9
2019-06-01T03:15:49.123Z,14.9
2019-06-01T03:16:25.106Z,14.9
2019-06-01T03:17:03.677Z,14.9
2019-06-01T03:17:37.030Z,14.8
2019-06-01T03:18:13.117Z,14.8
2019-06-01T03:18:49.098Z,14.9
2019-06-01T03:19:25.057Z,14.9
2019-06-01T03:20:04.447Z,14.9
2019-06-01T03:20:37.106Z,14.9
2019-06-01T03:21:13.081Z,14.8
2019-06-01T03:21:49.055Z,14.9
2019-06-01T03:22:25.031Z,14.8
2019-06-01T03:23:02.050Z,14.9
2019-06-01T03:23:37.077Z,14.9
2019-06-01T03:24:13.656Z,14.9
2019-06-01T03:24:49.025Z,14.8
2019-06-01T03:25:25.102Z,14.9
2019-06-01T03:26:02.360Z,14.8
2019-06-01T03:26:37.060Z,14.9
2019-06-01T03:27:13.010Z,14.9
2019-06-01T03:27:49.126Z,14.9
2019-06-01T03:28:25.085Z,14.9
2019-06-01T03:29:03.633Z,15
2019-06-01T03:29:37.016Z,15
2019-06-01T03:30:15.886Z,15
2019-06-01T03:30:49.113Z,14.9
2019-06-01T03:31:25.049Z,14.9
2019-06-01T03:32:33.663Z,15
2019-06-01T03:32:37.907Z,15
2019-06-01T03:33:14.628Z,15
2019-06-01T03:33:49.043Z,14.9
2019-06-01T03:34:25.007Z,15.1
2019-06-01T03:35:01.103Z,15.1
2019-06-01T03:35:37.079Z,15.1
2019-06-01T03:36:13.441Z,15
2019-06-01T03:36:49.005Z,15.2
2019-06-01T03:37:25.086Z,15.1
2019-06-01T03:38:01.148Z,15.1
2019-06-01T03:38:37.036Z,15.1
2019-06-01T03:39:13.455Z,15.2
2019-06-01T03:39:49.087Z,15.1
2019-06-01T03:40:25.062Z,15.1
2019-06-01T03:41:02.330Z,15.2
2019-06-01T03:41:37.011Z,15.3
2019-06-01T03:42:13.084Z,15.2
2019-06-01T03:42:49.053Z,15.3
2019-06-01T03:43:25.030Z,15.2
2019-06-01T03:44:02.404Z,15.3
2019-06-01T03:44:37.100Z,15.3
2019-06-01T03:45:13.521Z,15.3
2019-06-01T03:45:49.016Z,15.4
2019-06-01T03:46:25.135Z,15.4
2019-06-01T03:47:01.875Z,15.3
2019-06-01T03:47:37.056Z,15.3
2019-06-01T03:48:13.294Z,15.4
2019-06-01T03:48:49.165Z,15.3
2019-06-01T03:49:25.115Z,15.4
2019-06-01T03:50:01.085Z,15.3
2019-06-01T03:50:37.005Z,15.4
2019-06-01T03:51:13.108Z,15.4
2019-06-01T03:51:49.061Z,15.4
2019-06-01T03:52:25.056Z,15.4
2019-06-01T03:53:02.041Z,15.4
2019-06-01T03:53:37.098Z,15.4
2019-06-01T03:54:13.574Z,15.4
2019-06-01T03:54:49.098Z,15.4
2019-06-01T03:55:25.018Z,15.4
2019-06-01T03:56:03.365Z,15.5
2019-06-01T03:56:37.091Z,15.5
2019-06-01T03:57:13.031Z,15.4
2019-06-01T03:57:49.009Z,15.5
2019-06-01T03:58:25.122Z,15.6
2019-06-01T03:59:01.314Z,15.4
2019-06-01T03:59:37.051Z,15.5
2019-06-01T04:00:13.015Z,15.5
2019-06-01T04:00:49.087Z,15.4
2019-06-01T04:01:25.076Z,15.5
2019-06-01T04:02:01.160Z,15.5
2019-06-01T04:02:37.002Z,15.5
2019-06-01T04:03:13.097Z,15.5
2019-06-01T04:03:49.065Z,15.5
2019-06-01T04:04:25.036Z,15.6
2019-06-01T04:05:01.515Z,15.6
2019-06-01T04:05:37.123Z,15.6
2019-06-01T04:06:13.070Z,15.6
2019-06-01T04:06:49.030Z,15.7
2019-06-01T04:07:24.991Z,15.6
2019-06-01T04:08:01.642Z,15.8
2019-06-01T04:08:37.054Z,15.7
2019-06-01T04:09:13.036Z,15.7
2019-06-01T04:09:49.001Z,15.8
2019-06-01T04:10:25.087Z,15.7
2019-06-01T04:11:01.716Z,15.8
2019-06-01T04:11:37.039Z,15.7
2019-06-01T04:12:12.992Z,15.8
2019-06-01T04:12:49.101Z,15.8
2019-06-01T04:13:25.042Z,15.8
2019-06-01T04:14:01.863Z,15.8
2019-06-01T04:14:36.998Z,16
2019-06-01T04:15:17.026Z,16
2019-06-01T04:15:49.053Z,15.9
2019-06-01T04:16:25.039Z,15.9
2019-06-01T04:17:02.301Z,16
2019-06-01T04:17:37.079Z,16
2019-06-01T04:18:14.324Z,16
2019-06-01T04:18:49.036Z,16
2019-06-01T04:19:24.998Z,16.1
2019-06-01T04:20:02.365Z,16.2
2019-06-01T04:20:37.067Z,16.1
2019-06-01T04:21:13.012Z,16.2
2019-06-01T04:21:48.991Z,16.2
2019-06-01T04:22:25.092Z,16.1
2019-06-01T04:23:02.317Z,16.1
2019-06-01T04:23:37.010Z,16.2
2019-06-01T04:24:13.024Z,16.2
2019-06-01T04:24:49.101Z,16.2
2019-06-01T04:25:25.059Z,16.2
2019-06-01T04:26:02.404Z,16.3
2019-06-01T04:26:36.997Z,16.3
2019-06-01T04:27:13.093Z,16.3
2019-06-01T04:27:49.042Z,16.2
2019-06-01T04:28:25.046Z,16.3
2019-06-01T04:29:02.567Z,16.3
2019-06-01T04:29:37.059Z,16.4
2019-06-01T04:30:14.046Z,16.3
2019-06-01T04:30:49.030Z,16.4
2019-06-01T04:31:24.978Z,16.3
2019-06-01T04:32:02.377Z,16.5
2019-06-01T04:32:50.656Z,16.5
2019-06-01T04:33:13.586Z,16.5
2019-06-01T04:33:48.965Z,16.6
2019-06-01T04:34:25.061Z,16.5
2019-06-01T04:35:01.032Z,16.6
2019-06-01T04:35:38.492Z,16.6
2019-06-01T04:36:13.421Z,16.7
2019-06-01T04:36:49.055Z,16.8
2019-06-01T04:37:25.021Z,16.8
2019-06-01T04:38:01.008Z,16.7
2019-06-01T04:38:37.083Z,16.7
2019-06-01T04:39:14.086Z,16.8
2019-06-01T04:39:49.030Z,16.8
2019-06-01T04:40:24.985Z,16.9
2019-06-01T04:41:01.079Z,17
2019-06-01T04:41:37.079Z,16.9
2019-06-01T04:42:14.177Z,16.9
2019-06-01T04:42:49.174Z,16.9
2019-06-01T04:43:25.088Z,16.9
2019-06-01T04:44:01.046Z,17.1
2019-06-01T04:44:37.050Z,17
2019-06-01T04:45:14.292Z,17
2019-06-01T04:45:49.079Z,17.1
2019-06-01T04:46:25.052Z,17.2
2019-06-01T04:47:01.022Z,17.2
2019-06-01T04:47:36.966Z,17.1
2019-06-01T04:48:13.060Z,17.2
2019-06-01T04:48:49.051Z,17.3
2019-06-01T04:49:25.009Z,17.3
2019-06-01T04:50:00.980Z,17.3
2019-06-01T04:50:37.063Z,17.3
2019-06-01T04:51:14.727Z,17.3
2019-06-01T04:51:49.011Z,17.5
2019-06-01T04:52:24.973Z,17.5
2019-06-01T04:53:01.054Z,17.6
2019-06-01T04:53:37.031Z,17.5
2019-06-01T04:54:16.080Z,17.6
2019-06-01T04:54:48.965Z,17.7
2019-06-01T04:55:25.060Z,17.7
2019-06-01T04:56:01.024Z,17.8
2019-06-01T04:56:37.015Z,17.8
2019-06-01T04:57:13.334Z,17.9
2019-06-01T04:57:49.069Z,17.9
2019-06-01T04:58:25.027Z,18
2019-06-01T04:59:00.998Z,17.9
2019-06-01T04:59:38.254Z,17.8
2019-06-01T05:00:27.187Z,17.8
2019-06-01T05:00:49.036Z,17.7
2019-06-01T05:01:24.999Z,17.8
2019-06-01T05:02:00.985Z,17.7
2019-06-01T05:02:37.054Z,17.7
2019-06-01T05:03:15.201Z,17.6
2019-06-01T05:03:49.004Z,17.8
2019-06-01T05:04:24.963Z,17.7
2019-06-01T05:05:01.167Z,17.7
2019-06-01T05:05:37.021Z,17.8
2019-06-01T05:06:13.755Z,17.6
2019-06-01T05:06:48.965Z,17.8
2019-06-01T05:07:25.029Z,17.9
2019-06-01T05:08:01.015Z,17.8
2019-06-01T05:08:36.970Z,17.8
2019-06-01T05:09:13.688Z,17.8
2019-06-01T05:09:49.044Z,17.9
2019-06-01T05:10:25.027Z,17.9
2019-06-01T05:11:06.976Z,18.1
2019-06-01T05:11:36.968Z,18.2
2019-06-01T05:12:13.964Z,18.2
2019-06-01T05:12:49.019Z,18.3
2019-06-01T05:13:24.978Z,18.5
2019-06-01T05:14:00.968Z,18.5
2019-06-01T05:14:37.030Z,18.5
2019-06-01T05:15:14.252Z,18.6
2019-06-01T05:15:48.996Z,18.6
2019-06-01T05:16:24.957Z,18.7
2019-06-01T05:17:01.031Z,18.6
2019-06-01T05:17:37.017Z,18.7
2019-06-01T05:18:14.019Z,18.6
2019-06-01T05:18:48.950Z,18.7
2019-06-01T05:19:25.032Z,18.6
2019-06-01T05:20:01.013Z,18.6
2019-06-01T05:20:36.967Z,18.6
2019-06-01T05:21:14.986Z,18.4
2019-06-01T05:21:49.042Z,18.3
2019-06-01T05:22:25.067Z,18.4
2019-06-01T05:23:00.973Z,18.4
2019-06-01T05:23:36.939Z,18.3
2019-06-01T05:24:13.057Z,18.2
2019-06-01T05:24:48.991Z,18.2
2019-06-01T05:25:24.957Z,18.1
2019-06-01T05:26:00.926Z,18.1
2019-06-01T05:26:48.946Z,18
2019-06-01T05:27:25.022Z,17.9
2019-06-01T05:28:00.986Z,17.9
2019-06-01T05:28:36.962Z,17.9
2019-06-01T05:29:13.861Z,17.9
2019-06-01T05:30:14.066Z,17.9
2019-06-01T05:30:48.929Z,17.9
2019-06-01T05:31:25.555Z,18
2019-06-01T05:32:01.018Z,18
2019-06-01T05:32:36.968Z,18.1
2019-06-01T05:33:38.078Z,18.1
2019-06-01T05:34:14.129Z,18.1
2019-06-01T05:34:48.926Z,18.2
2019-06-01T05:35:25.009Z,18.2
2019-06-01T05:36:00.992Z,18.3
2019-06-01T05:36:36.936Z,18.3
2019-06-01T05:37:14.156Z,18.5
2019-06-01T05:37:49.022Z,18.6
2019-06-01T05:38:24.981Z,18.5
2019-06-01T05:39:00.953Z,18.7
2019-06-01T05:39:37.058Z,18.7
2019-06-01T05:40:13.017Z,18.8
2019-06-01T05:40:48.981Z,19
2019-06-01T05:41:24.941Z,19
2019-06-01T05:42:01.079Z,19
2019-06-01T05:42:37.063Z,19
2019-06-01T05:43:18.978Z,19.1
2019-06-01T05:43:48.937Z,19.2
2019-06-01T05:44:25.021Z,19.4
2019-06-01T05:45:01.003Z,19.5
2019-06-01T05:45:36.976Z,19.6
2019-06-01T05:46:14.221Z,19.8
2019-06-01T05:46:49.030Z,19.8
2019-06-01T05:47:24.994Z,19.8
2019-06-01T05:48:00.984Z,19.7
2019-06-01T05:48:36.942Z,19.8
2019-06-01T05:49:14.697Z,19.9
2019-06-01T05:49:49.006Z,19.8
2019-06-01T05:50:24.974Z,19.8
2019-06-01T05:51:00.930Z,20.1
2019-06-01T05:51:37.037Z,20.1
2019-06-01T05:52:12.995Z,19.9
2019-06-01T05:52:48.988Z,19.9
2019-06-01T05:53:24.944Z,19.9
2019-06-01T05:54:01.097Z,20
2019-06-01T05:54:36.999Z,19.9
2019-06-01T05:55:14.365Z,20
2019-06-01T05:55:48.930Z,19.9
2019-06-01T05:56:25.006Z,19.9
2019-06-01T05:57:01.025Z,19.9
2019-06-01T05:57:36.961Z,19.9
2019-06-01T05:58:13.311Z,19.9
2019-06-01T05:58:49.025Z,20
2019-06-01T05:59:24.977Z,19.9
2019-06-01T06:00:00.952Z,19.9
2019-06-01T06:00:36.927Z,19.8
2019-06-01T06:01:14.539Z,19.9
2019-06-01T06:01:48.992Z,19.9
2019-06-01T06:02:24.936Z,20
2019-06-01T06:03:00.925Z,20
2019-06-01T06:03:40.963Z,20
2019-06-01T06:04:13.697Z,19.9
2019-06-01T06:04:48.957Z,20
2019-06-01T06:05:24.923Z,19.9
2019-06-01T06:06:01.019Z,20
2019-06-01T06:06:36.970Z,20
2019-06-01T06:07:13.172Z,20
2019-06-01T06:07:48.907Z,20.1
2019-06-01T06:08:24.999Z,20
2019-06-01T06:09:00.980Z,20.3
2019-06-01T06:09:37.042Z,20.2
2019-06-01T06:10:14.079Z,20.2
2019-06-01T06:10:49.004Z,20.2
2019-06-01T06:11:24.969Z,20.1
2019-06-01T06:12:00.956Z,20.2
2019-06-01T06:12:36.910Z,20.1
2019-06-01T06:13:13.654Z,20.1
2019-06-01T06:13:48.967Z,20
2019-06-01T06:14:24.956Z,20.1
2019-06-01T06:15:00.916Z,20
2019-06-01T06:15:37.009Z,20.2
2019-06-01T06:16:14.124Z,20.1
2019-06-01T06:16:48.941Z,20
2019-06-01T06:17:24.894Z,19.8
2019-06-01T06:18:01.005Z,19.9
2019-06-01T06:18:48.993Z,20
2019-06-01T06:19:24.995Z,19.9
2019-06-01T06:20:00.931Z,20
2019-06-01T06:20:36.907Z,19.9
2019-06-01T06:21:14.222Z,19.9
2019-06-01T06:21:48.997Z,19.8
2019-06-01T06:22:24.927Z,19.8
2019-06-01T06:23:01.492Z,19.9
2019-06-01T06:23:36.974Z,19.9
2019-06-01T06:24:12.961Z,19.9
2019-06-01T06:25:14.602Z,20
2019-06-01T06:25:48.967Z,19.9
2019-06-01T06:26:24.925Z,20
2019-06-01T06:27:00.890Z,20
2019-06-01T06:27:36.989Z,20
2019-06-01T06:28:12.961Z,19.9
2019-06-01T06:28:48.932Z,19.8
2019-06-01T06:29:24.906Z,19.9
2019-06-01T06:30:00.966Z,19.8
2019-06-01T06:30:36.960Z,19.9
2019-06-01T06:31:13.284Z,19.9
2019-06-01T06:31:48.890Z,20
2019-06-01T06:32:24.969Z,20
2019-06-01T06:33:00.943Z,20
2019-06-01T06:33:37.276Z,20
2019-06-01T06:34:13.589Z,20.1
2019-06-01T06:34:49.007Z,20.1
2019-06-01T06:35:24.947Z,20.2
2019-06-01T06:36:00.945Z,20.2
2019-06-01T06:36:36.887Z,20.1
2019-06-01T06:37:13.775Z,20.1
2019-06-01T06:37:48.950Z,20.1
2019-06-01T06:38:24.924Z,20.1
2019-06-01T06:39:00.894Z,20.2
2019-06-01T06:39:36.966Z,20.2
2019-06-01T06:40:14.085Z,20.1
2019-06-01T06:40:48.918Z,20.2
2019-06-01T06:41:24.889Z,20.1
2019-06-01T06:42:01.034Z,20.2
2019-06-01T06:42:36.943Z,20.1
2019-06-01T06:43:28.817Z,20.2
2019-06-01T06:43:49.024Z,20.1
2019-06-01T06:44:25.171Z,20.2
2019-06-01T06:45:03.954Z,20.2
2019-06-01T06:45:36.902Z,20.2
2019-06-01T06:46:13.001Z,20.4
2019-06-01T06:46:48.978Z,20.4
2019-06-01T06:47:25.451Z,20.2
2019-06-01T06:48:00.897Z,20.3
2019-06-01T06:48:36.990Z,20.2
2019-06-01T06:49:13.007Z,20.2
2019-06-01T06:49:48.933Z,20.3
2019-06-01T06:50:25.975Z,20.5
2019-06-01T06:51:01.059Z,20.5
2019-06-01T06:51:36.949Z,20.6
2019-06-01T06:52:12.947Z,20.6
2019-06-01T06:52:48.873Z,20.7
2019-06-01T06:53:35.546Z,20.7
2019-06-01T06:54:00.964Z,20.7
2019-06-01T06:54:36.912Z,20.8
2019-06-01T06:55:12.888Z,20.8
2019-06-01T06:55:48.984Z,20.6
2019-06-01T06:56:26.072Z,20.6
2019-06-01T06:57:00.926Z,20.5
2019-06-01T06:57:36.892Z,20.4
2019-06-01T06:58:12.981Z,20.6
2019-06-01T06:58:48.949Z,20.6
2019-06-01T06:59:24.915Z,20.4
2019-06-01T07:00:00.886Z,20.5
2019-06-01T07:00:36.989Z,20.5
2019-06-01T07:01:12.987Z,20.5
2019-06-01T07:01:48.919Z,20.6
2019-06-01T07:02:25.342Z,20.5
2019-06-01T07:03:00.972Z,20.6
2019-06-01T07:04:13.358Z,20.8
2019-06-01T07:04:36.986Z,20.8
2019-06-01T07:05:12.949Z,21
2019-06-01T07:05:48.920Z,21.1
2019-06-01T07:06:25.979Z,21.2
2019-06-01T07:07:00.978Z,21.2
2019-06-01T07:07:36.935Z,21.1
2019-06-01T07:08:12.931Z,21.4
2019-06-01T07:08:49.414Z,21.4
2019-06-01T07:09:26.063Z,21.4
2019-06-01T07:10:00.926Z,21.4
2019-06-01T07:10:36.914Z,21.4
2019-06-01T07:11:12.872Z,21.3
2019-06-01T07:11:48.992Z,21.1
2019-06-01T07:12:25.715Z,21.2
2019-06-01T07:13:00.891Z,21.4
2019-06-01T07:13:36.899Z,21.4
2019-06-01T07:14:12.961Z,21.4
2019-06-01T07:14:48.932Z,21.4
2019-06-01T07:15:25.858Z,21.5
2019-06-01T07:16:04.195Z,21.6
2019-06-01T07:16:36.963Z,21.7
2019-06-01T07:17:16.135Z,21.9
2019-06-01T07:17:48.927Z,21.9
2019-06-01T07:18:26.026Z,21.8
2019-06-01T07:19:00.953Z,21.9
2019-06-01T07:19:36.966Z,22.1
2019-06-01T07:20:12.954Z,22
2019-06-01T07:20:48.899Z,22.1
2019-06-01T07:21:26.203Z,22
2019-06-01T07:22:00.949Z,21.9
2019-06-01T07:22:36.904Z,22.1
2019-06-01T07:23:12.888Z,22
2019-06-01T07:23:48.999Z,21.9
2019-06-01T07:24:26.322Z,22
2019-06-01T07:25:00.893Z,21.7
2019-06-01T07:25:36.858Z,21.7
2019-06-01T07:26:12.968Z,21.6
2019-06-01T07:26:48.922Z,21.5
2019-06-01T07:27:26.089Z,21.4
2019-06-01T07:28:00.869Z,21.4
2019-06-01T07:28:36.967Z,21.3
2019-06-01T07:29:26.151Z,21.3
2019-06-01T07:30:00.927Z,21.2
2019-06-01T07:30:50.849Z,21.3
2019-06-01T07:31:12.847Z,21.2
2019-06-01T07:31:48.929Z,21.3
2019-06-01T07:32:26.207Z,21.2
2019-06-01T07:33:00.870Z,21.4
2019-06-01T07:33:36.835Z,21.4
2019-06-01T07:34:37.609Z,21.5
2019-06-01T07:34:48.935Z,21.5
2019-06-01T07:35:24.874Z,21.6
2019-06-01T07:36:00.837Z,21.7
2019-06-01T07:36:36.922Z,21.8
2019-06-01T07:37:12.899Z,21.8
2019-06-01T07:37:48.872Z,22
2019-06-01T07:38:25.024Z,22
2019-06-01T07:39:00.949Z,22.4
2019-06-01T07:39:36.916Z,22.5
2019-06-01T07:40:14.440Z,22.7
2019-06-01T07:40:48.836Z,22.7
2019-06-01T07:41:24.999Z,22.9
2019-06-01T07:42:00.952Z,22.9
2019-06-01T07:42:36.859Z,23
2019-06-01T07:43:12.835Z,22.9
2019-06-01T07:43:48.913Z,22.9
2019-06-01T07:44:25.368Z,23.2
2019-06-01T07:45:00.887Z,23.4
2019-06-01T07:45:36.823Z,23.5
2019-06-01T07:46:12.918Z,23.5
2019-06-01T07:46:48.891Z,23.7
2019-06-01T07:47:25.334Z,23.8
2019-06-01T07:48:00.826Z,23.9
2019-06-01T07:48:36.915Z,23.9
2019-06-01T07:49:12.890Z,23.8
2019-06-01T07:49:48.847Z,24
2019-06-01T07:50:26.230Z,24
2019-06-01T07:51:00.911Z,24
2019-06-01T07:51:36.899Z,24
2019-06-01T07:52:14.006Z,24.1
2019-06-01T07:52:48.939Z,24.2
2019-06-01T07:53:25.872Z,24.3
2019-06-01T07:54:00.900Z,23.7
2019-06-01T07:54:36.843Z,23.7
2019-06-01T07:55:12.924Z,23.8
2019-06-01T07:55:48.910Z,24
2019-06-01T07:56:24.875Z,24
2019-06-01T07:57:00.838Z,24
2019-06-01T07:57:36.931Z,24
2019-06-01T07:58:12.897Z,23.9
2019-06-01T07:58:48.874Z,24
2019-06-01T07:59:28.001Z,24.1
2019-06-01T08:00:00.947Z,24.1
2019-06-01T08:00:36.898Z,23.9
2019-06-01T08:01:12.891Z,23.8
2019-06-01T08:01:48.847Z,23.8
2019-06-01T08:02:29.526Z,23.9
2019-06-01T08:03:00.901Z,23.7
2019-06-01T08:03:36.885Z,23.4
2019-06-01T08:04:12.830Z,23.5
2019-06-01T08:04:54.834Z,23.5
2019-06-01T08:05:27.779Z,23.7
2019-06-01T08:06:00.870Z,23.7